createdAt,value
2017-12-15T00:00:49.934Z,98206.84
2017-12-15T00:03:17.394Z,98206.38
2017-12-15T00:05:44.867Z,98207.62
2017-12-15T00:08:12.326Z,98196.72
2017-12-15T00:10:39.806Z,98196.73
2017-12-15T00:13:07.285Z,98192.88
2017-12-15T00:15:34.780Z,98192.02
2017-12-15T00:18:02.265Z,98190.35
2017-12-15T00:20:29.725Z,98184.91
2017-12-15T00:22:57.205Z,98191.59
2017-12-15T00:25:24.709Z,98200.06
2017-12-15T00:27:52.979Z,98194.25
2017-12-15T00:30:20.443Z,98186.42
2017-12-15T00:32:47.936Z,98183.14
2017-12-15T00:35:15.416Z,98183.52
2017-12-15T00:37:43.246Z,98182.71
2017-12-15T00:40:10.724Z,98176.76
2017-12-15T00:42:38.227Z,98174.22
2017-12-15T00:45:05.724Z,98173.44
2017-12-15T00:47:33.197Z,98172.95
2017-12-15T00:50:00.657Z,98166.23
2017-12-15T00:52:28.153Z,98165.88
2017-12-15T00:54:55.635Z,98162.92
2017-12-15T00:57:23.134Z,98169.24
2017-12-15T00:59:50.601Z,98170.47
2017-12-15T01:02:18.059Z,98174.63
2017-12-15T01:04:45.557Z,98170.38
2017-12-15T01:07:13.038Z,98170.34
2017-12-15T01:09:40.506Z,98176.16
2017-12-15T01:12:07.961Z,98177.75
2017-12-15T01:14:35.433Z,98176.41
2017-12-15T01:17:03.512Z,98179.27
2017-12-15T01:19:31.144Z,98179.66
2017-12-15T01:21:58.648Z,98182.19
2017-12-15T01:24:26.141Z,98178.75
2017-12-15T01:26:53.642Z,98180.83
2017-12-15T01:29:21.135Z,98187.13
2017-12-15T01:31:48.622Z,98187.12
2017-12-15T01:34:16.116Z,98190.86
2017-12-15T01:36:43.604Z,98188.36
2017-12-15T01:39:11.122Z,98195.48
2017-12-15T01:41:38.638Z,98192.88
2017-12-15T01:44:06.143Z,98189.37
2017-12-15T01:46:33.599Z,98191.39
2017-12-15T01:49:01.058Z,98190.50
2017-12-15T01:51:28.553Z,98185.72
2017-12-15T01:53:56.040Z,98190.19
2017-12-15T01:56:23.534Z,98191.40
2017-12-15T01:58:50.997Z,98189.69
2017-12-15T02:01:18.481Z,98196.02
2017-12-15T02:03:45.941Z,98191.36
2017-12-15T02:06:13.398Z,98191.69
2017-12-15T02:08:40.889Z,98194.61
2017-12-15T02:11:08.393Z,98195.91
2017-12-15T02:13:35.874Z,98190.77
2017-12-15T02:16:03.330Z,98191.97
2017-12-15T02:18:30.811Z,98189.00
2017-12-15T02:20:58.295Z,98193.27
2017-12-15T02:23:25.766Z,98197.54
2017-12-15T02:25:53.254Z,98197.50
2017-12-15T02:28:20.749Z,98195.02
2017-12-15T02:30:48.218Z,98197.09
2017-12-15T02:33:15.737Z,98198.39
2017-12-15T02:35:43.228Z,98201.38
2017-12-15T02:38:10.713Z,98197.20
2017-12-15T02:40:38.206Z,98201.42
2017-12-15T02:43:05.686Z,98197.59
2017-12-15T02:45:33.192Z,98203.03
2017-12-15T02:48:00.679Z,98206.42
2017-12-15T02:50:28.154Z,98208.52
2017-12-15T02:52:55.614Z,98200.45
2017-12-15T02:55:23.082Z,98198.80
2017-12-15T03:00:17.785Z,98201.66
2017-12-15T03:02:45.270Z,98208.44
2017-12-15T03:05:12.730Z,98207.76
2017-12-15T03:07:40.229Z,98208.55
2017-12-15T03:10:07.722Z,98205.06
2017-12-15T03:12:35.220Z,98204.99
2017-12-15T03:15:02.697Z,98203.22
2017-12-15T03:17:30.158Z,98209.41
2017-12-15T03:19:57.654Z,98209.38
2017-12-15T03:22:25.114Z,98210.70
2017-12-15T03:24:52.608Z,98208.22
2017-12-15T03:27:20.100Z,98203.68
2017-12-15T03:29:47.582Z,98208.34
2017-12-15T03:32:15.077Z,98204.44
2017-12-15T03:34:42.555Z,98206.67
2017-12-15T03:37:10.069Z,98208.83
2017-12-15T03:39:37.546Z,98210.02
2017-12-15T03:42:05.028Z,98215.50
2017-12-15T03:44:32.501Z,98210.94
2017-12-15T03:46:59.950Z,98218.02
2017-12-15T03:49:27.887Z,98222.55
2017-12-15T03:51:55.398Z,98219.19
2017-12-15T03:54:22.894Z,98228.41
2017-12-15T03:56:50.393Z,98227.97
2017-12-15T03:59:17.882Z,98228.28
2017-12-15T04:01:45.376Z,98232.13
2017-12-15T04:04:12.853Z,98226.23
2017-12-15T04:06:40.358Z,98224.50
2017-12-15T04:09:07.846Z,98228.65
2017-12-15T04:11:35.336Z,98232.09
2017-12-15T04:14:02.829Z,98238.34
2017-12-15T04:16:30.356Z,98232.91
2017-12-15T04:18:57.844Z,98232.91
2017-12-15T04:21:25.333Z,98235.40
2017-12-15T04:23:52.817Z,98241.37
2017-12-15T04:26:20.274Z,98247.31
2017-12-15T04:28:47.751Z,98249.08
2017-12-15T04:31:15.219Z,98255.45
2017-12-15T04:33:42.716Z,98261.28
2017-12-15T04:36:10.184Z,98259.89
2017-12-15T04:38:37.676Z,98273.72
2017-12-15T04:41:05.159Z,98276.75
2017-12-15T04:43:32.684Z,98278.81
2017-12-15T04:46:00.176Z,98282.95
2017-12-15T04:48:27.672Z,98285.61
2017-12-15T04:50:55.180Z,98290.24
2017-12-15T04:53:22.660Z,98282.92
2017-12-15T04:55:50.157Z,98290.89
2017-12-15T04:58:17.672Z,98301.76
2017-12-15T05:00:45.173Z,98305.16
2017-12-15T05:03:12.665Z,98309.87
2017-12-15T05:05:40.161Z,98314.91
2017-12-15T05:08:07.650Z,98317.02
2017-12-15T05:10:35.110Z,98321.31
2017-12-15T05:13:02.580Z,98324.57
2017-12-15T05:15:30.065Z,98330.47
2017-12-15T05:17:57.538Z,98330.05
2017-12-15T05:20:25.038Z,98328.86
2017-12-15T05:22:52.541Z,98338.93
2017-12-15T05:25:20.042Z,98345.76
2017-12-15T05:27:48.055Z,98341.06
2017-12-15T05:30:15.880Z,98351.20
2017-12-15T05:32:43.594Z,98353.23
2017-12-15T05:35:11.082Z,98359.14
2017-12-15T05:37:38.582Z,98360.80
2017-12-15T05:40:06.084Z,98364.54
2017-12-15T05:42:33.587Z,98367.94
2017-12-15T05:45:01.080Z,98365.81
2017-12-15T05:47:29.235Z,98367.57
2017-12-15T05:49:56.725Z,98371.34
2017-12-15T05:52:24.294Z,98368.14
2017-12-15T05:54:51.794Z,98371.02
2017-12-15T05:57:19.290Z,98372.22
2017-12-15T05:59:46.800Z,98374.03
2017-12-15T06:02:14.293Z,98380.38
2017-12-15T06:04:41.758Z,98382.95
2017-12-15T06:07:09.271Z,98386.77
2017-12-15T06:09:36.784Z,98382.09
2017-12-15T06:12:04.258Z,98388.30
2017-12-15T06:14:31.741Z,98388.75
2017-12-15T06:16:59.264Z,98395.00
2017-12-15T06:19:26.758Z,98399.97
2017-12-15T06:21:54.522Z,98403.39
2017-12-15T06:24:22.054Z,98405.51
2017-12-15T06:26:49.538Z,98411.03
2017-12-15T06:29:17.036Z,98412.23
2017-12-15T06:31:44.526Z,98418.52
2017-12-15T06:34:12.023Z,98426.97
2017-12-15T06:36:39.516Z,98425.24
2017-12-15T06:39:07.002Z,98432.78
2017-12-15T06:41:34.516Z,98433.69
2017-12-15T06:44:02.022Z,98442.10
2017-12-15T06:46:29.512Z,98439.91
2017-12-15T06:48:57.180Z,98440.80
2017-12-15T06:51:24.673Z,98453.42
2017-12-15T06:53:52.169Z,98457.62
2017-12-15T06:56:19.676Z,98457.12
2017-12-15T06:58:47.196Z,98460.85
2017-12-15T07:01:14.674Z,98465.86
2017-12-15T07:03:42.200Z,98466.73
2017-12-15T07:06:09.709Z,98465.92
2017-12-15T07:08:37.228Z,98474.30
2017-12-15T07:11:05.778Z,98476.44
2017-12-15T07:13:33.261Z,98473.05
2017-12-15T07:16:00.757Z,98477.75
2017-12-15T07:18:28.244Z,98477.70
2017-12-15T07:20:55.742Z,98481.46
2017-12-15T07:23:23.436Z,98482.30
2017-12-15T07:25:50.928Z,98486.11
2017-12-15T07:28:18.428Z,98494.45
2017-12-15T07:30:46.417Z,98502.86
2017-12-15T07:33:13.911Z,98500.70
2017-12-15T07:35:41.419Z,98509.08
2017-12-15T07:38:08.900Z,98504.89
2017-12-15T07:40:36.388Z,98511.60
2017-12-15T07:43:04.014Z,98519.23
2017-12-15T07:45:31.596Z,98523.37
2017-12-15T07:47:59.102Z,98524.20
2017-12-15T07:50:26.617Z,98524.63
2017-12-15T07:52:54.120Z,98525.88
2017-12-15T07:55:21.615Z,98532.59
2017-12-15T07:57:49.122Z,98541.01
2017-12-15T08:00:16.616Z,98540.98
2017-12-15T08:02:44.087Z,98545.21
2017-12-15T08:05:11.574Z,98544.74
2017-12-15T08:07:39.097Z,98544.25
2017-12-15T08:10:06.609Z,98552.66
2017-12-15T08:12:34.109Z,98547.09
2017-12-15T08:15:01.595Z,98549.58
2017-12-15T08:17:29.094Z,98551.70
2017-12-15T08:19:56.600Z,98553.77
2017-12-15T08:22:24.121Z,98555.05
2017-12-15T08:24:51.608Z,98559.66
2017-12-15T08:27:19.103Z,98562.13
2017-12-15T08:29:46.596Z,98564.59
2017-12-15T08:32:14.078Z,98564.89
2017-12-15T08:34:41.610Z,98564.03
2017-12-15T08:37:09.102Z,98573.19
2017-12-15T08:39:36.587Z,98571.43
2017-12-15T08:42:04.067Z,98570.52
2017-12-15T08:44:31.686Z,98573.64
2017-12-15T08:46:59.141Z,98570.88
2017-12-15T08:49:26.628Z,98567.00
2017-12-15T08:51:54.129Z,98567.76
2017-12-15T08:54:21.712Z,98580.83
2017-12-15T08:56:49.217Z,98580.12
2017-12-15T08:59:16.712Z,98590.91
2017-12-15T09:01:44.228Z,98597.36
2017-12-15T09:04:17.315Z,98600.97
2017-12-15T09:06:46.671Z,98606.95
2017-12-15T09:09:14.152Z,98614.99
2017-12-15T09:11:41.741Z,98620.73
2017-12-15T09:14:09.229Z,98620.46
2017-12-15T09:16:36.698Z,98623.27
2017-12-15T09:19:04.193Z,98628.91
2017-12-15T09:21:31.676Z,98639.58
2017-12-15T09:23:59.177Z,98637.31
2017-12-15T09:26:26.680Z,98643.66
2017-12-15T09:28:54.226Z,98644.52
2017-12-15T09:31:21.721Z,98650.89
2017-12-15T09:33:49.205Z,98658.45
2017-12-15T09:36:16.706Z,98660.79
2017-12-15T09:38:44.197Z,98665.34
2017-12-15T09:41:11.711Z,98666.34
2017-12-15T09:43:39.196Z,98671.34
2017-12-15T09:46:06.678Z,98668.77
2017-12-15T09:48:34.198Z,98676.25
2017-12-15T09:51:01.686Z,98679.92
2017-12-15T09:53:29.200Z,98691.19
2017-12-15T09:55:56.703Z,98687.63
2017-12-15T09:58:24.194Z,98687.82
2017-12-15T10:00:51.810Z,98687.30
2017-12-15T10:03:19.300Z,98694.56
2017-12-15T10:05:46.820Z,98703.03
2017-12-15T10:08:14.304Z,98699.02
2017-12-15T10:10:41.978Z,98710.53
2017-12-15T10:13:09.477Z,98713.89
2017-12-15T10:15:36.970Z,98715.02
2017-12-15T10:18:04.442Z,98723.27
2017-12-15T10:20:31.952Z,98721.67
2017-12-15T10:22:59.549Z,98725.53
2017-12-15T10:25:27.046Z,98719.63
2017-12-15T10:27:54.552Z,98722.98
2017-12-15T10:30:22.049Z,98732.33
2017-12-15T10:32:49.520Z,98731.75
2017-12-15T10:35:17.017Z,98727.00
2017-12-15T10:37:44.505Z,98732.52
2017-12-15T10:40:12.016Z,98730.47
2017-12-15T10:42:39.489Z,98728.22
2017-12-15T10:45:06.982Z,98729.55
2017-12-15T10:47:34.478Z,98734.92
2017-12-15T10:50:02.006Z,98740.05
2017-12-15T10:52:29.494Z,98742.95
2017-12-15T10:54:56.976Z,98742.71
2017-12-15T10:57:24.476Z,98742.62
2017-12-15T10:59:52.037Z,98744.39
2017-12-15T11:02:19.534Z,98742.71
2017-12-15T11:04:47.017Z,98741.88
2017-12-15T11:07:14.508Z,98749.11
2017-12-15T11:09:42.007Z,98744.81
2017-12-15T11:12:09.481Z,98742.50
2017-12-15T11:14:36.990Z,98749.84
2017-12-15T11:17:04.456Z,98752.83
2017-12-15T11:19:31.941Z,98757.39
2017-12-15T11:21:59.470Z,98761.29
2017-12-15T11:24:26.951Z,98759.20
2017-12-15T11:26:54.456Z,98758.73
2017-12-15T11:29:21.953Z,98764.13
2017-12-15T11:31:49.440Z,98757.78
2017-12-15T11:34:16.936Z,98763.16
2017-12-15T11:36:44.464Z,98759.42
2017-12-15T11:39:11.961Z,98760.13
2017-12-15T11:41:39.469Z,98757.03
2017-12-15T11:44:06.980Z,98754.50
2017-12-15T11:46:34.475Z,98753.20
2017-12-15T11:49:01.964Z,98750.09
2017-12-15T11:51:29.447Z,98745.35
2017-12-15T11:53:56.942Z,98759.17
2017-12-15T11:56:24.518Z,98753.52
2017-12-15T11:58:51.985Z,98752.13
2017-12-15T12:01:19.492Z,98751.00
2017-12-15T12:03:46.985Z,98755.89
2017-12-15T12:06:14.505Z,98756.56
2017-12-15T12:08:42.087Z,98753.33
2017-12-15T12:11:09.549Z,98756.62
2017-12-15T12:13:37.024Z,98757.44
2017-12-15T12:16:04.503Z,98752.92
2017-12-15T12:18:31.981Z,98752.11
2017-12-15T12:20:59.472Z,98754.59
2017-12-15T12:23:26.946Z,98763.23
2017-12-15T12:25:54.425Z,98758.64
2017-12-15T12:28:21.903Z,98762.27
2017-12-15T12:30:49.394Z,98760.13
2017-12-15T12:33:16.852Z,98765.06
2017-12-15T12:35:44.522Z,98757.42
2017-12-15T12:38:12.143Z,98757.13
2017-12-15T12:40:39.616Z,98755.41
2017-12-15T12:43:07.105Z,98756.95
2017-12-15T12:45:34.632Z,98759.72
2017-12-15T12:48:02.110Z,98750.92
2017-12-15T12:50:29.608Z,98753.02
2017-12-15T12:52:59.322Z,98750.36
2017-12-15T12:55:26.793Z,98755.50
2017-12-15T12:57:55.134Z,98752.16
2017-12-15T13:00:22.591Z,98751.80
2017-12-15T13:02:50.090Z,98746.97
2017-12-15T13:05:17.558Z,98756.28
2017-12-15T13:07:45.038Z,98759.34
2017-12-15T13:10:12.531Z,98757.69
2017-12-15T13:12:40.128Z,98756.67
2017-12-15T13:15:07.629Z,98759.16
2017-12-15T13:17:35.105Z,98755.77
2017-12-15T13:20:02.610Z,98763.75
2017-12-15T13:22:30.218Z,98761.23
2017-12-15T13:24:57.694Z,98764.53
2017-12-15T13:27:25.217Z,98765.00
2017-12-15T13:29:52.696Z,98768.36
2017-12-15T13:32:20.214Z,98771.84
2017-12-15T13:34:47.772Z,98775.44
2017-12-15T13:37:15.243Z,98780.41
2017-12-15T13:39:42.882Z,98781.58
2017-12-15T13:42:12.256Z,98789.83
2017-12-15T13:44:39.755Z,98795.77
2017-12-15T13:47:07.248Z,98796.55
2017-12-15T13:49:34.713Z,98801.16
2017-12-15T13:52:02.194Z,98810.38
2017-12-15T13:54:29.722Z,98814.52
2017-12-15T13:56:57.254Z,98817.45
2017-12-15T13:59:24.736Z,98819.13
2017-12-15T14:01:53.129Z,98823.28
2017-12-15T14:04:20.641Z,98824.12
2017-12-15T14:06:48.131Z,98828.34
2017-12-15T14:09:16.310Z,98832.51
2017-12-15T14:11:43.790Z,98844.02
2017-12-15T14:14:11.269Z,98844.81
2017-12-15T14:16:38.793Z,98848.63
2017-12-15T14:19:06.278Z,98850.69
2017-12-15T14:21:33.766Z,98854.06
2017-12-15T14:24:01.253Z,98854.84
2017-12-15T14:26:28.782Z,98858.70
2017-12-15T14:28:56.272Z,98864.57
2017-12-15T14:31:23.762Z,98873.06
2017-12-15T14:33:52.233Z,98871.73
2017-12-15T14:36:19.721Z,98873.41
2017-12-15T14:38:48.671Z,98869.17
2017-12-15T14:41:16.239Z,98875.57
2017-12-15T14:43:43.685Z,98882.73
2017-12-15T14:46:11.529Z,98884.89
2017-12-15T14:48:43.876Z,98885.29
2017-12-15T14:51:06.546Z,98887.87
2017-12-15T14:53:34.089Z,98879.50
2017-12-15T14:56:01.569Z,98890.42
2017-12-15T14:58:33.733Z,98890.87
2017-12-15T15:01:01.241Z,98893.83
2017-12-15T15:03:29.134Z,98900.14
2017-12-15T15:05:56.617Z,98895.88
2017-12-15T15:08:24.135Z,98898.00
2017-12-15T15:10:51.652Z,98903.07
2017-12-15T15:13:19.125Z,98902.26
2017-12-15T15:15:46.647Z,98908.14
2017-12-15T15:18:14.347Z,98899.81
2017-12-15T15:33:36.873Z,98920.29
2017-12-15T15:36:04.413Z,98924.90
2017-12-15T15:38:31.951Z,98922.42
2017-12-15T15:40:59.500Z,98920.27
2017-12-15T15:43:27.011Z,98922.73
2017-12-15T15:45:54.530Z,98921.51
2017-12-15T15:48:22.004Z,98923.28
2017-12-15T15:50:49.478Z,98927.91
2017-12-15T15:53:17.520Z,98924.15
2017-12-15T15:55:45.374Z,98924.99
2017-12-15T15:58:12.836Z,98932.64
2017-12-15T16:00:40.395Z,98935.16
2017-12-15T16:03:08.162Z,98933.56
2017-12-15T16:05:35.689Z,98940.38
2017-12-15T16:08:03.241Z,98944.95
2017-12-15T16:10:31.010Z,98951.37
2017-12-15T16:12:58.774Z,98952.57
2017-12-15T16:15:26.333Z,98957.71
2017-12-15T16:17:53.914Z,98961.95
2017-12-15T16:20:21.482Z,98965.77
2017-12-15T16:22:48.970Z,98962.78
2017-12-15T16:25:16.473Z,98969.55
2017-12-15T16:27:44.164Z,98968.66
2017-12-15T16:30:11.986Z,98965.34
2017-12-15T16:32:39.701Z,98964.50
2017-12-15T16:35:07.474Z,98974.20
2017-12-15T16:37:34.984Z,98977.61
2017-12-15T16:40:02.459Z,98973.41
2017-12-15T16:42:30.043Z,98968.27
2017-12-15T16:44:57.550Z,98977.53
2017-12-15T16:47:25.874Z,98978.39
2017-12-15T16:49:53.367Z,98974.14
2017-12-15T16:52:20.852Z,98974.51
2017-12-15T16:54:48.330Z,98987.56
2017-12-15T16:57:15.805Z,98986.71
2017-12-15T16:59:43.305Z,98985.03
2017-12-15T17:02:10.788Z,98988.55
2017-12-15T17:04:38.276Z,98995.72
2017-12-15T17:07:05.787Z,98996.55
2017-12-15T17:09:33.273Z,98993.58
2017-12-15T17:12:00.757Z,98997.45
2017-12-15T17:14:28.247Z,98993.66
2017-12-15T17:16:55.737Z,98995.70
2017-12-15T17:19:23.269Z,98997.88
2017-12-15T17:21:50.828Z,99000.94
2017-12-15T17:24:18.318Z,98999.66
2017-12-15T17:26:45.804Z,99003.44
2017-12-15T17:29:13.666Z,99004.22
2017-12-15T17:31:41.161Z,99002.13
2017-12-15T17:34:08.664Z,99000.89
2017-12-15T17:36:36.152Z,99006.81
2017-12-15T17:39:03.635Z,99003.44
2017-12-15T17:41:31.120Z,99009.45
2017-12-15T17:43:58.606Z,99008.63
2017-12-15T17:46:26.104Z,99005.73
2017-12-15T17:48:54.260Z,99007.48
2017-12-15T17:51:21.737Z,99005.48
2017-12-15T17:53:49.224Z,99011.50
2017-12-15T17:56:16.715Z,99013.17
2017-12-15T17:58:44.201Z,99010.25
2017-12-15T18:01:11.686Z,99017.86
2017-12-15T18:03:39.166Z,99023.41
2017-12-15T18:06:06.650Z,99023.47
2017-12-15T18:08:34.110Z,99028.94
2017-12-15T18:11:01.599Z,99029.31
2017-12-15T18:13:29.077Z,99029.72
2017-12-15T18:15:56.546Z,99033.58
2017-12-15T18:18:24.076Z,99036.09
2017-12-15T18:20:51.566Z,99042.41
2017-12-15T18:23:19.058Z,99050.91
2017-12-15T18:25:46.552Z,99059.41
2017-12-15T18:28:14.027Z,99066.13
2017-12-15T18:30:41.501Z,99069.87
2017-12-15T18:33:08.999Z,99073.61
2017-12-15T18:35:36.492Z,99070.66
2017-12-15T18:38:03.973Z,99079.55
2017-12-15T18:40:31.554Z,99081.19
2017-12-15T18:42:59.902Z,99086.25
2017-12-15T18:45:27.392Z,99086.27
2017-12-15T18:47:54.890Z,99092.64
2017-12-15T18:50:22.398Z,99106.61
2017-12-15T18:52:49.884Z,99109.52
2017-12-15T18:55:17.359Z,99115.47
2017-12-15T18:57:44.860Z,99115.08
2017-12-15T19:00:12.358Z,99122.27
2017-12-15T19:02:39.846Z,99118.39
2017-12-15T19:05:07.342Z,99118.38
2017-12-15T19:07:34.837Z,99125.96
2017-12-15T19:10:02.306Z,99124.29
2017-12-15T19:12:29.818Z,99129.86
2017-12-15T19:14:57.268Z,99127.71
2017-12-15T19:17:24.758Z,99130.29
2017-12-15T19:19:52.236Z,99134.48
2017-12-15T19:22:19.718Z,99131.55
2017-12-15T19:24:47.675Z,99132.02
2017-12-15T19:27:15.229Z,99136.62
2017-12-15T19:29:42.794Z,99142.91
2017-12-15T19:32:10.301Z,99141.66
2017-12-15T19:34:37.809Z,99143.80
2017-12-15T19:37:05.291Z,99143.75
2017-12-15T19:39:32.867Z,99137.14
2017-12-15T19:42:00.396Z,99145.52
2017-12-15T19:44:27.932Z,99138.78
2017-12-15T19:46:55.509Z,99138.41
2017-12-15T19:49:23.011Z,99138.45
2017-12-15T19:51:50.517Z,99137.55
2017-12-15T19:54:18.008Z,99143.85
2017-12-15T19:56:46.361Z,99141.33
2017-12-15T19:59:14.311Z,99143.01
2017-12-15T20:01:53.031Z,99144.64
2017-12-15T20:04:20.510Z,99147.13
2017-12-15T20:06:48.086Z,99150.92
2017-12-15T20:09:15.593Z,99150.08
2017-12-15T20:11:43.065Z,99150.92
2017-12-15T20:14:10.570Z,99151.86
2017-12-15T20:16:38.091Z,99153.56
2017-12-15T20:19:07.563Z,99158.64
2017-12-15T20:21:35.045Z,99155.67
2017-12-15T20:24:02.606Z,99162.83
2017-12-15T20:26:30.078Z,99164.51
2017-12-15T20:28:57.949Z,99160.39
2017-12-15T20:31:25.838Z,99158.73
2017-12-15T20:33:53.736Z,99162.14
2017-12-15T20:36:21.567Z,99157.97
2017-12-15T20:38:49.337Z,99160.50
2017-12-15T20:41:17.081Z,99163.48
2017-12-15T20:43:44.891Z,99166.91
2017-12-15T20:46:12.394Z,99170.64
2017-12-15T20:48:39.870Z,99167.33
2017-12-15T20:51:07.342Z,99161.86
2017-12-15T20:53:34.942Z,99163.98
2017-12-15T20:56:02.377Z,99171.16
2017-12-15T20:58:29.880Z,99172.80
2017-12-15T21:00:57.366Z,99179.17
2017-12-15T21:03:24.852Z,99176.21
2017-12-15T21:05:52.381Z,99172.44
2017-12-15T21:08:20.693Z,99173.72
2017-12-15T21:10:48.169Z,99183.03
2017-12-15T21:13:15.668Z,99175.48
2017-12-15T21:15:43.165Z,99183.92
2017-12-15T21:18:10.724Z,99173.37
2017-12-15T21:20:39.006Z,99181.43
2017-12-15T21:23:06.497Z,99186.06
2017-12-15T21:25:33.969Z,99187.31
2017-12-15T21:28:02.173Z,99187.33
2017-12-15T21:30:29.694Z,99188.55
2017-12-15T21:32:57.216Z,99189.42
2017-12-15T21:35:24.694Z,99190.66
2017-12-15T21:37:52.192Z,99191.94
2017-12-15T21:40:19.692Z,99196.98
2017-12-15T21:42:47.214Z,99194.03
2017-12-15T21:45:14.718Z,99198.69
2017-12-15T21:47:42.234Z,99199.91
2017-12-15T21:50:09.737Z,99205.00
2017-12-15T21:52:37.276Z,99204.95
2017-12-15T21:55:04.766Z,99210.05
2017-12-15T21:57:32.312Z,99214.63
2017-12-15T21:59:59.802Z,99217.58
2017-12-15T22:02:27.286Z,99219.28
2017-12-15T22:04:54.783Z,99223.06
2017-12-15T22:07:26.142Z,99226.42
2017-12-15T22:09:53.897Z,99234.84
2017-12-15T22:12:21.402Z,99228.94
2017-12-15T22:14:48.906Z,99233.55
2017-12-15T22:17:16.426Z,99239.92
2017-12-15T22:19:43.920Z,99240.30
2017-12-15T22:22:11.448Z,99242.44
2017-12-15T22:24:38.980Z,99241.60
2017-12-15T22:27:06.488Z,99238.24
2017-12-15T22:29:34.063Z,99240.77
2017-12-15T22:32:01.566Z,99239.55
2017-12-15T22:34:29.133Z,99240.36
2017-12-15T22:36:56.642Z,99240.78
2017-12-15T22:39:24.142Z,99254.70
2017-12-15T22:41:51.673Z,99254.69
2017-12-15T22:44:19.158Z,99255.09
2017-12-15T22:46:46.671Z,99262.27
2017-12-15T22:49:14.176Z,99258.89
2017-12-15T22:51:41.650Z,99256.79
2017-12-15T22:54:09.198Z,99259.27
2017-12-15T22:56:36.705Z,99255.50
2017-12-15T22:59:04.217Z,99252.95
2017-12-15T23:01:31.711Z,99256.36
2017-12-15T23:03:59.262Z,99253.41
2017-12-15T23:06:26.786Z,99256.81
2017-12-15T23:08:54.282Z,99255.15
2017-12-15T23:11:21.766Z,99260.19
2017-12-15T23:13:50.059Z,99258.11
2017-12-15T23:16:17.787Z,99266.48
2017-12-15T23:18:45.284Z,99263.13
2017-12-15T23:21:12.764Z,99270.70
2017-12-15T23:23:40.226Z,99273.20
2017-12-15T23:26:07.733Z,99268.16
2017-12-15T23:28:35.220Z,99272.38
2017-12-15T23:31:02.700Z,99268.61
2017-12-15T23:33:30.178Z,99273.20
2017-12-15T23:35:57.708Z,99265.70
2017-12-15T23:38:25.214Z,99269.44
2017-12-15T23:40:52.709Z,99263.55
2017-12-15T23:43:20.209Z,99262.70
2017-12-15T23:45:47.732Z,99261.02
2017-12-15T23:48:15.239Z,99261.85
2017-12-15T23:50:42.745Z,99261.44
2017-12-15T23:53:10.259Z,99260.63
2017-12-15T23:55:49.551Z,99262.71
2017-12-15T23:58:17.027Z,99268.64
